sensor_id;sensor_type;location;lat;lon;timestamp;temperature;humidity
13652;DHT22;6899;51.546;6.912;2023-05-10T00:00:50;13.10;99.90
13652;DHT22;6899;51.546;6.912;2023-05-10T00:03:17;13.00;99.90
13652;DHT22;6899;51.546;6.912;2023-05-10T00:05:43;12.90;99.90
13652;DHT22;6899;51.546;6.912;2023-05-10T00:08:10;13.00;99.90
13652;DHT22;6899;51.546;6.912;2023-05-10T00:10:37;13.00;99.90
13652;DHT22;6899;51.546;6.912;2023-05-10T00:13:06;13.00;99.90
13652;DHT22;6899;51.546;6.912;2023-05-10T00:15:32;13.00;99.90
13652;DHT22;6899;51.546;6.912;2023-05-10T00:18:00;12.90;99.90
13652;DHT22;6899;51.546;6.912;2023-05-10T00:20:26;13.00;99.90
13652;DHT22;6899;51.546;6.912;2023-05-10T00:22:53;13.00;99.90
13652;DHT22;6899;51.546;6.912;2023-05-10T00:25:20;13.00;99.90
13652;DHT22;6899;51.546;6.912;2023-05-10T00:27:47;12.90;99.90
13652;DHT22;6899;51.546;6.912;2023-05-10T00:30:16;12.90;99.90
13652;DHT22;6899;51.546;6.912;2023-05-10T00:32:43;12.90;99.90
13652;DHT22;6899;51.546;6.912;2023-05-10T00:35:10;12.90;99.90
13652;DHT22;6899;51.546;6.912;2023-05-10T00:37:36;12.90;99.90
13652;DHT22;6899;51.546;6.912;2023-05-10T00:40:04;12.80;99.90
13652;DHT22;6899;51.546;6.912;2023-05-10T00:42:31;12.90;99.90
13652;DHT22;6899;51.546;6.912;2023-05-10T00:44:58;12.90;99.90
13652;DHT22;6899;51.546;6.912;2023-05-10T00:47:26;12.90;99.90
13652;DHT22;6899;51.546;6.912;2023-05-10T00:49:54;12.90;99.90
13652;DHT22;6899;51.546;6.912;2023-05-10T00:52:21;12.70;99.90
13652;DHT22;6899;51.546;6.912;2023-05-10T00:54:49;12.80;99.90
13652;DHT22;6899;51.546;6.912;2023-05-10T00:57:17;12.70;99.90
13652;DHT22;6899;51.546;6.912;2023-05-10T00:59:43;12.80;99.90
13652;DHT22;6899;51.546;6.912;2023-05-10T01:02:10;12.70;99.90
13652;DHT22;6899;51.546;6.912;2023-05-10T01:04:40;12.70;99.90
13652;DHT22;6899;51.546;6.912;2023-05-10T01:07:06;12.60;99.90
13652;DHT22;6899;51.546;6.912;2023-05-10T01:09:33;12.60;99.90
13652;DHT22;6899;51.546;6.912;2023-05-10T01:12:01;12.60;99.90
13652;DHT22;6899;51.546;6.912;2023-05-10T01:14:28;12.60;99.90
13652;DHT22;6899;51.546;6.912;2023-05-10T01:16:55;12.60;99.90
13652;DHT22;6899;51.546;6.912;2023-05-10T01:19:25;12.60;99.90
13652;DHT22;6899;51.546;6.912;2023-05-10T01:22:02;12.50;99.90
13652;DHT22;6899;51.546;6.912;2023-05-10T01:24:58;12.50;99.90
13652;DHT22;6899;51.546;6.912;2023-05-10T01:28:03;12.60;99.90
13652;DHT22;6899;51.546;6.912;2023-05-10T01:31:03;12.50;99.90
13652;DHT22;6899;51.546;6.912;2023-05-10T01:33:35;12.40;99.90
13652;DHT22;6899;51.546;6.912;2023-05-10T01:36:08;12.40;99.90
13652;DHT22;6899;51.546;6.912;2023-05-10T01:38:42;12.40;99.90
13652;DHT22;6899;51.546;6.912;2023-05-10T01:41:16;12.40;99.90
13652;DHT22;6899;51.546;6.912;2023-05-10T01:43:51;12.40;99.90
13652;DHT22;6899;51.546;6.912;2023-05-10T01:46:27;12.50;99.90
13652;DHT22;6899;51.546;6.912;2023-05-10T01:48:58;12.40;99.90
13652;DHT22;6899;51.546;6.912;2023-05-10T01:51:31;12.40;99.90
13652;DHT22;6899;51.546;6.912;2023-05-10T01:54:02;12.30;99.90
13652;DHT22;6899;51.546;6.912;2023-05-10T01:56:32;12.30;99.90
13652;DHT22;6899;51.546;6.912;2023-05-10T01:59:01;12.40;99.90
13652;DHT22;6899;51.546;6.912;2023-05-10T02:01:29;12.30;99.90
13652;DHT22;6899;51.546;6.912;2023-05-10T02:03:58;12.20;99.90
13652;DHT22;6899;51.546;6.912;2023-05-10T02:06:26;12.20;99.90
13652;DHT22;6899;51.546;6.912;2023-05-10T02:08:53;12.30;99.90
13652;DHT22;6899;51.546;6.912;2023-05-10T02:11:21;12.20;99.90
13652;DHT22;6899;51.546;6.912;2023-05-10T02:13:50;12.30;99.90
13652;DHT22;6899;51.546;6.912;2023-05-10T02:16:18;12.20;99.90
13652;DHT22;6899;51.546;6.912;2023-05-10T02:18:48;12.30;99.90
13652;DHT22;6899;51.546;6.912;2023-05-10T02:21:19;12.30;99.90
13652;DHT22;6899;51.546;6.912;2023-05-10T02:23:48;12.30;99.90
13652;DHT22;6899;51.546;6.912;2023-05-10T02:26:16;12.20;99.90
13652;DHT22;6899;51.546;6.912;2023-05-10T02:28:43;12.20;99.90
13652;DHT22;6899;51.546;6.912;2023-05-10T02:31:11;12.20;99.90
13652;DHT22;6899;51.546;6.912;2023-05-10T02:33:40;12.30;99.90
13652;DHT22;6899;51.546;6.912;2023-05-10T02:36:08;12.30;99.90
13652;DHT22;6899;51.546;6.912;2023-05-10T02:38:37;12.30;99.90
13652;DHT22;6899;51.546;6.912;2023-05-10T02:41:06;12.20;99.90
13652;DHT22;6899;51.546;6.912;2023-05-10T02:43:35;12.30;99.90
13652;DHT22;6899;51.546;6.912;2023-05-10T02:46:02;12.40;99.90
13652;DHT22;6899;51.546;6.912;2023-05-10T02:48:29;12.40;99.90
13652;DHT22;6899;51.546;6.912;2023-05-10T02:51:01;12.40;99.90
13652;DHT22;6899;51.546;6.912;2023-05-10T02:53:31;12.40;99.90
13652;DHT22;6899;51.546;6.912;2023-05-10T02:56:04;12.30;99.90
13652;DHT22;6899;51.546;6.912;2023-05-10T02:58:32;12.30;99.90
13652;DHT22;6899;51.546;6.912;2023-05-10T03:00:59;12.30;99.90
13652;DHT22;6899;51.546;6.912;2023-05-10T03:03:26;12.20;99.90
13652;DHT22;6899;51.546;6.912;2023-05-10T03:05:53;12.30;99.90
13652;DHT22;6899;51.546;6.912;2023-05-10T03:08:21;12.30;99.90
13652;DHT22;6899;51.546;6.912;2023-05-10T03:10:55;12.30;99.90
13652;DHT22;6899;51.546;6.912;2023-05-10T03:13:31;12.30;99.90
13652;DHT22;6899;51.546;6.912;2023-05-10T03:16:07;12.40;99.90
13652;DHT22;6899;51.546;6.912;2023-05-10T03:18:42;12.30;99.90
13652;DHT22;6899;51.546;6.912;2023-05-10T03:21:11;12.40;99.90
13652;DHT22;6899;51.546;6.912;2023-05-10T03:23:43;12.40;99.90
13652;DHT22;6899;51.546;6.912;2023-05-10T03:26:13;12.50;99.90
13652;DHT22;6899;51.546;6.912;2023-05-10T03:28:45;12.50;99.90
13652;DHT22;6899;51.546;6.912;2023-05-10T03:31:14;12.60;99.90
13652;DHT22;6899;51.546;6.912;2023-05-10T03:33:46;12.50;99.90
13652;DHT22;6899;51.546;6.912;2023-05-10T03:36:13;12.60;99.90
13652;DHT22;6899;51.546;6.912;2023-05-10T03:38:40;12.60;99.90
13652;DHT22;6899;51.546;6.912;2023-05-10T03:41:07;12.60;99.90
13652;DHT22;6899;51.546;6.912;2023-05-10T03:43:34;12.60;99.90
13652;DHT22;6899;51.546;6.912;2023-05-10T03:46:03;12.60;99.90
13652;DHT22;6899;51.546;6.912;2023-05-10T03:48:29;12.60;99.90
13652;DHT22;6899;51.546;6.912;2023-05-10T03:50:56;12.60;99.90
13652;DHT22;6899;51.546;6.912;2023-05-10T03:53:23;12.60;99.90
13652;DHT22;6899;51.546;6.912;2023-05-10T03:55:50;12.60;99.90
13652;DHT22;6899;51.546;6.912;2023-05-10T03:58:17;12.60;99.90
13652;DHT22;6899;51.546;6.912;2023-05-10T04:00:44;12.60;99.90
13652;DHT22;6899;51.546;6.912;2023-05-10T04:03:12;12.70;99.90
13652;DHT22;6899;51.546;6.912;2023-05-10T04:05:39;12.60;99.90
13652;DHT22;6899;51.546;6.912;2023-05-10T04:08:07;12.60;99.90
13652;DHT22;6899;51.546;6.912;2023-05-10T04:10:34;12.60;99.90
13652;DHT22;6899;51.546;6.912;2023-05-10T04:13:00;12.60;99.90
13652;DHT22;6899;51.546;6.912;2023-05-10T04:15:27;12.60;99.90
13652;DHT22;6899;51.546;6.912;2023-05-10T04:17:54;12.50;99.90
13652;DHT22;6899;51.546;6.912;2023-05-10T04:20:22;12.50;99.90
13652;DHT22;6899;51.546;6.912;2023-05-10T04:22:49;12.50;99.90
13652;DHT22;6899;51.546;6.912;2023-05-10T04:25:16;12.50;99.90
13652;DHT22;6899;51.546;6.912;2023-05-10T04:27:42;12.60;99.90
13652;DHT22;6899;51.546;6.912;2023-05-10T04:30:10;12.60;99.90
13652;DHT22;6899;51.546;6.912;2023-05-10T04:32:37;12.60;99.90
13652;DHT22;6899;51.546;6.912;2023-05-10T04:35:04;12.60;99.90
13652;DHT22;6899;51.546;6.912;2023-05-10T04:37:32;12.70;99.90
13652;DHT22;6899;51.546;6.912;2023-05-10T04:39:59;12.70;99.90
13652;DHT22;6899;51.546;6.912;2023-05-10T04:42:26;12.70;99.90
13652;DHT22;6899;51.546;6.912;2023-05-10T04:44:53;12.70;99.90
13652;DHT22;6899;51.546;6.912;2023-05-10T04:47:19;12.70;99.90
13652;DHT22;6899;51.546;6.912;2023-05-10T04:49:46;12.70;99.90
13652;DHT22;6899;51.546;6.912;2023-05-10T04:52:13;12.70;99.90
13652;DHT22;6899;51.546;6.912;2023-05-10T04:54:42;12.70;99.90
13652;DHT22;6899;51.546;6.912;2023-05-10T04:57:09;12.80;99.90
13652;DHT22;6899;51.546;6.912;2023-05-10T04:59:36;12.70;99.90
13652;DHT22;6899;51.546;6.912;2023-05-10T05:02:03;12.70;99.90
13652;DHT22;6899;51.546;6.912;2023-05-10T05:04:30;12.70;99.90
13652;DHT22;6899;51.546;6.912;2023-05-10T05:06:57;12.80;99.90
13652;DHT22;6899;51.546;6.912;2023-05-10T05:09:24;12.80;99.90
13652;DHT22;6899;51.546;6.912;2023-05-10T05:11:52;12.90;99.90
13652;DHT22;6899;51.546;6.912;2023-05-10T05:14:18;12.90;99.90
13652;DHT22;6899;51.546;6.912;2023-05-10T05:16:46;13.00;99.90
13652;DHT22;6899;51.546;6.912;2023-05-10T05:19:13;13.00;99.90
13652;DHT22;6899;51.546;6.912;2023-05-10T05:21:40;12.90;99.90
13652;DHT22;6899;51.546;6.912;2023-05-10T05:24:07;13.00;99.90
13652;DHT22;6899;51.546;6.912;2023-05-10T05:26:35;13.00;99.90
13652;DHT22;6899;51.546;6.912;2023-05-10T05:29:03;13.00;99.90
13652;DHT22;6899;51.546;6.912;2023-05-10T05:31:30;13.00;99.90
13652;DHT22;6899;51.546;6.912;2023-05-10T05:33:57;12.80;99.90
13652;DHT22;6899;51.546;6.912;2023-05-10T05:36:23;12.90;99.90
13652;DHT22;6899;51.546;6.912;2023-05-10T05:38:50;13.00;99.90
13652;DHT22;6899;51.546;6.912;2023-05-10T05:41:17;13.00;99.90
13652;DHT22;6899;51.546;6.912;2023-05-10T05:43:44;13.30;99.90
13652;DHT22;6899;51.546;6.912;2023-05-10T05:46:12;13.30;99.90
13652;DHT22;6899;51.546;6.912;2023-05-10T05:48:38;13.20;99.90
13652;DHT22;6899;51.546;6.912;2023-05-10T05:51:05;13.10;99.90
13652;DHT22;6899;51.546;6.912;2023-05-10T05:53:32;13.20;99.90
13652;DHT22;6899;51.546;6.912;2023-05-10T05:55:59;13.20;99.90
13652;DHT22;6899;51.546;6.912;2023-05-10T05:58:25;13.30;99.90
13652;DHT22;6899;51.546;6.912;2023-05-10T06:00:53;13.50;99.90
13652;DHT22;6899;51.546;6.912;2023-05-10T06:03:21;13.80;99.90
13652;DHT22;6899;51.546;6.912;2023-05-10T06:05:48;14.00;99.90
13652;DHT22;6899;51.546;6.912;2023-05-10T06:08:15;14.20;99.90
13652;DHT22;6899;51.546;6.912;2023-05-10T06:10:41;14.10;99.90
13652;DHT22;6899;51.546;6.912;2023-05-10T06:13:08;13.70;99.90
13652;DHT22;6899;51.546;6.912;2023-05-10T06:15:35;13.60;99.90
13652;DHT22;6899;51.546;6.912;2023-05-10T06:18:02;13.70;99.90
13652;DHT22;6899;51.546;6.912;2023-05-10T06:20:30;13.80;99.90
13652;DHT22;6899;51.546;6.912;2023-05-10T06:22:57;14.20;99.90
13652;DHT22;6899;51.546;6.912;2023-05-10T06:25:24;14.50;99.90
13652;DHT22;6899;51.546;6.912;2023-05-10T06:27:51;14.60;99.90
13652;DHT22;6899;51.546;6.912;2023-05-10T06:30:23;14.50;99.90
13652;DHT22;6899;51.546;6.912;2023-05-10T06:32:52;14.70;99.90
13652;DHT22;6899;51.546;6.912;2023-05-10T06:35:20;14.90;99.90
13652;DHT22;6899;51.546;6.912;2023-05-10T06:37:48;15.50;99.90
13652;DHT22;6899;51.546;6.912;2023-05-10T06:40:15;16.20;99.90
13652;DHT22;6899;51.546;6.912;2023-05-10T06:42:42;16.90;99.90
13652;DHT22;6899;51.546;6.912;2023-05-10T06:45:10;17.80;99.90
13652;DHT22;6899;51.546;6.912;2023-05-10T06:47:37;18.40;99.90
13652;DHT22;6899;51.546;6.912;2023-05-10T06:50:04;18.60;99.90
13652;DHT22;6899;51.546;6.912;2023-05-10T06:52:31;18.10;99.90
13652;DHT22;6899;51.546;6.912;2023-05-10T06:55:00;17.70;99.90
13652;DHT22;6899;51.546;6.912;2023-05-10T06:57:27;17.60;99.90
13652;DHT22;6899;51.546;6.912;2023-05-10T06:59:54;17.50;99.90
13652;DHT22;6899;51.546;6.912;2023-05-10T07:02:21;17.50;99.90
13652;DHT22;6899;51.546;6.912;2023-05-10T07:04:48;17.30;99.90
13652;DHT22;6899;51.546;6.912;2023-05-10T07:07:15;17.10;99.90
13652;DHT22;6899;51.546;6.912;2023-05-10T07:09:42;17.10;99.90
13652;DHT22;6899;51.546;6.912;2023-05-10T07:12:10;17.00;99.90
13652;DHT22;6899;51.546;6.912;2023-05-10T07:14:37;16.90;99.90
13652;DHT22;6899;51.546;6.912;2023-05-10T07:17:03;16.80;99.90
13652;DHT22;6899;51.546;6.912;2023-05-10T07:19:30;16.80;99.90
13652;DHT22;6899;51.546;6.912;2023-05-10T07:21:58;16.70;99.90
13652;DHT22;6899;51.546;6.912;2023-05-10T07:24:24;17.10;99.90
13652;DHT22;6899;51.546;6.912;2023-05-10T07:26:51;17.80;99.90
13652;DHT22;6899;51.546;6.912;2023-05-10T07:29:19;18.30;99.90
13652;DHT22;6899;51.546;6.912;2023-05-10T07:31:46;18.70;99.90
13652;DHT22;6899;51.546;6.912;2023-05-10T07:34:13;18.80;99.90
13652;DHT22;6899;51.546;6.912;2023-05-10T07:36:40;19.60;99.90
13652;DHT22;6899;51.546;6.912;2023-05-10T07:39:06;19.70;99.90
13652;DHT22;6899;51.546;6.912;2023-05-10T07:41:33;19.70;99.90
13652;DHT22;6899;51.546;6.912;2023-05-10T07:44:00;19.30;99.90
13652;DHT22;6899;51.546;6.912;2023-05-10T07:46:28;19.10;99.90
13652;DHT22;6899;51.546;6.912;2023-05-10T07:48:55;19.20;99.90
13652;DHT22;6899;51.546;6.912;2023-05-10T07:51:22;19.00;99.90
13652;DHT22;6899;51.546;6.912;2023-05-10T07:53:48;18.60;99.90
13652;DHT22;6899;51.546;6.912;2023-05-10T07:56:23;18.50;99.90
13652;DHT22;6899;51.546;6.912;2023-05-10T07:58:53;18.40;99.90
13652;DHT22;6899;51.546;6.912;2023-05-10T08:01:20;18.20;99.90
13652;DHT22;6899;51.546;6.912;2023-05-10T08:03:48;18.20;99.90
13652;DHT22;6899;51.546;6.912;2023-05-10T08:06:17;18.40;99.90
13652;DHT22;6899;51.546;6.912;2023-05-10T08:08:44;19.00;99.90
13652;DHT22;6899;51.546;6.912;2023-05-10T08:11:15;19.20;99.90
13652;DHT22;6899;51.546;6.912;2023-05-10T08:13:42;19.10;99.90
13652;DHT22;6899;51.546;6.912;2023-05-10T08:16:09;18.50;99.90
13652;DHT22;6899;51.546;6.912;2023-05-10T08:18:36;18.00;99.90
13652;DHT22;6899;51.546;6.912;2023-05-10T08:21:05;17.50;99.90
13652;DHT22;6899;51.546;6.912;2023-05-10T08:23:32;17.30;99.90
13652;DHT22;6899;51.546;6.912;2023-05-10T08:25:59;17.30;99.90
13652;DHT22;6899;51.546;6.912;2023-05-10T08:28:25;17.30;99.90
13652;DHT22;6899;51.546;6.912;2023-05-10T08:30:52;17.70;99.90
13652;DHT22;6899;51.546;6.912;2023-05-10T08:33:19;18.50;99.90
13652;DHT22;6899;51.546;6.912;2023-05-10T08:35:46;19.20;99.90
13652;DHT22;6899;51.546;6.912;2023-05-10T08:38:14;19.90;99.90
13652;DHT22;6899;51.546;6.912;2023-05-10T08:40:42;20.40;99.90
13652;DHT22;6899;51.546;6.912;2023-05-10T08:43:11;20.50;99.90
13652;DHT22;6899;51.546;6.912;2023-05-10T08:45:39;20.50;99.90
13652;DHT22;6899;51.546;6.912;2023-05-10T08:48:07;20.40;99.90
13652;DHT22;6899;51.546;6.912;2023-05-10T08:50:36;20.10;99.90
13652;DHT22;6899;51.546;6.912;2023-05-10T08:53:05;20.00;99.90
13652;DHT22;6899;51.546;6.912;2023-05-10T08:55:33;20.00;99.90
13652;DHT22;6899;51.546;6.912;2023-05-10T08:58:02;20.20;99.90
13652;DHT22;6899;51.546;6.912;2023-05-10T09:00:29;20.20;99.90
13652;DHT22;6899;51.546;6.912;2023-05-10T09:02:56;20.30;99.90
13652;DHT22;6899;51.546;6.912;2023-05-10T09:05:24;20.40;99.90
13652;DHT22;6899;51.546;6.912;2023-05-10T09:07:50;21.00;99.90
13652;DHT22;6899;51.546;6.912;2023-05-10T09:10:17;21.90;99.90
13652;DHT22;6899;51.546;6.912;2023-05-10T09:12:45;22.10;99.90
13652;DHT22;6899;51.546;6.912;2023-05-10T09:15:15;21.80;99.90
13652;DHT22;6899;51.546;6.912;2023-05-10T09:17:44;21.30;99.90
13652;DHT22;6899;51.546;6.912;2023-05-10T09:20:12;20.50;99.90
13652;DHT22;6899;51.546;6.912;2023-05-10T09:22:39;19.90;99.90
13652;DHT22;6899;51.546;6.912;2023-05-10T09:25:07;19.50;99.90
13652;DHT22;6899;51.546;6.912;2023-05-10T09:27:34;19.20;99.90
13652;DHT22;6899;51.546;6.912;2023-05-10T09:30:02;19.10;99.90
13652;DHT22;6899;51.546;6.912;2023-05-10T09:32:39;18.90;99.90
13652;DHT22;6899;51.546;6.912;2023-05-10T09:35:10;18.60;99.90
13652;DHT22;6899;51.546;6.912;2023-05-10T09:37:39;18.40;99.90
13652;DHT22;6899;51.546;6.912;2023-05-10T09:40:08;18.00;99.90
13652;DHT22;6899;51.546;6.912;2023-05-10T09:42:37;18.40;99.90
13652;DHT22;6899;51.546;6.912;2023-05-10T09:45:07;18.60;99.90
13652;DHT22;6899;51.546;6.912;2023-05-10T09:47:34;18.50;99.90
13652;DHT22;6899;51.546;6.912;2023-05-10T09:50:02;18.50;99.90
13652;DHT22;6899;51.546;6.912;2023-05-10T09:52:30;18.40;99.90
13652;DHT22;6899;51.546;6.912;2023-05-10T09:54:57;18.20;99.90
13652;DHT22;6899;51.546;6.912;2023-05-10T09:57:25;17.60;99.90
13652;DHT22;6899;51.546;6.912;2023-05-10T09:59:52;17.40;99.90
13652;DHT22;6899;51.546;6.912;2023-05-10T10:02:21;17.10;99.90
13652;DHT22;6899;51.546;6.912;2023-05-10T10:04:55;17.20;99.90
13652;DHT22;6899;51.546;6.912;2023-05-10T10:07:22;17.40;99.90
13652;DHT22;6899;51.546;6.912;2023-05-10T10:09:51;17.60;99.90
13652;DHT22;6899;51.546;6.912;2023-05-10T10:12:18;17.70;99.90
13652;DHT22;6899;51.546;6.912;2023-05-10T10:14:46;17.70;99.90
13652;DHT22;6899;51.546;6.912;2023-05-10T10:17:13;17.90;99.90
13652;DHT22;6899;51.546;6.912;2023-05-10T10:19:42;18.00;99.90
13652;DHT22;6899;51.546;6.912;2023-05-10T10:22:09;17.70;99.90
13652;DHT22;6899;51.546;6.912;2023-05-10T10:24:38;17.40;99.90
13652;DHT22;6899;51.546;6.912;2023-05-10T10:27:15;17.10;99.90
13652;DHT22;6899;51.546;6.912;2023-05-10T10:29:52;16.90;99.90
13652;DHT22;6899;51.546;6.912;2023-05-10T10:32:27;16.80;99.90
13652;DHT22;6899;51.546;6.912;2023-05-10T10:34:58;16.80;99.90
13652;DHT22;6899;51.546;6.912;2023-05-10T10:37:43;16.80;99.90
13652;DHT22;6899;51.546;6.912;2023-05-10T10:40:26;16.80;99.90
13652;DHT22;6899;51.546;6.912;2023-05-10T10:42:54;16.80;99.90
13652;DHT22;6899;51.546;6.912;2023-05-10T10:45:21;17.00;99.90
13652;DHT22;6899;51.546;6.912;2023-05-10T10:47:49;17.10;99.90
13652;DHT22;6899;51.546;6.912;2023-05-10T10:50:21;17.10;99.90
13652;DHT22;6899;51.546;6.912;2023-05-10T10:52:47;17.20;99.90
13652;DHT22;6899;51.546;6.912;2023-05-10T10:55:18;17.10;99.90
13652;DHT22;6899;51.546;6.912;2023-05-10T10:57:48;17.30;99.90
13652;DHT22;6899;51.546;6.912;2023-05-10T11:00:26;17.40;99.90
13652;DHT22;6899;51.546;6.912;2023-05-10T11:02:56;17.40;99.90
13652;DHT22;6899;51.546;6.912;2023-05-10T11:05:36;17.30;99.90
13652;DHT22;6899;51.546;6.912;2023-05-10T11:08:15;17.40;99.90
13652;DHT22;6899;51.546;6.912;2023-05-10T11:10:51;17.50;99.90
13652;DHT22;6899;51.546;6.912;2023-05-10T11:13:27;17.30;99.90
13652;DHT22;6899;51.546;6.912;2023-05-10T11:15:56;17.10;99.90
13652;DHT22;6899;51.546;6.912;2023-05-10T11:18:25;17.20;99.90
13652;DHT22;6899;51.546;6.912;2023-05-10T11:20:56;17.70;99.90
13652;DHT22;6899;51.546;6.912;2023-05-10T11:23:28;18.30;99.90
13652;DHT22;6899;51.546;6.912;2023-05-10T11:25:55;19.00;99.90
13652;DHT22;6899;51.546;6.912;2023-05-10T11:28:23;19.90;99.90
13652;DHT22;6899;51.546;6.912;2023-05-10T11:30:50;19.80;99.90
13652;DHT22;6899;51.546;6.912;2023-05-10T11:33:18;19.60;99.90
13652;DHT22;6899;51.546;6.912;2023-05-10T11:35:45;19.00;99.90
13652;DHT22;6899;51.546;6.912;2023-05-10T11:38:14;18.30;99.90
13652;DHT22;6899;51.546;6.912;2023-05-10T11:40:41;17.90;99.90
13652;DHT22;6899;51.546;6.912;2023-05-10T11:43:09;17.90;99.90
13652;DHT22;6899;51.546;6.912;2023-05-10T11:45:37;17.80;99.90
13652;DHT22;6899;51.546;6.912;2023-05-10T11:48:04;18.20;99.90
13652;DHT22;6899;51.546;6.912;2023-05-10T11:50:31;18.90;99.90
13652;DHT22;6899;51.546;6.912;2023-05-10T11:52:58;19.60;99.90
13652;DHT22;6899;51.546;6.912;2023-05-10T11:55:26;20.10;99.90
13652;DHT22;6899;51.546;6.912;2023-05-10T11:58:00;20.50;99.90
13652;DHT22;6899;51.546;6.912;2023-05-10T12:00:28;20.70;99.90
13652;DHT22;6899;51.546;6.912;2023-05-10T12:02:55;20.40;99.90
13652;DHT22;6899;51.546;6.912;2023-05-10T12:05:22;19.80;99.90
13652;DHT22;6899;51.546;6.912;2023-05-10T12:07:49;19.60;99.90
13652;DHT22;6899;51.546;6.912;2023-05-10T12:10:16;19.60;99.90
13652;DHT22;6899;51.546;6.912;2023-05-10T12:12:45;19.90;99.90
13652;DHT22;6899;51.546;6.912;2023-05-10T12:15:17;20.10;99.90
13652;DHT22;6899;51.546;6.912;2023-05-10T12:17:45;20.50;99.90
13652;DHT22;6899;51.546;6.912;2023-05-10T12:20:16;20.50;99.90
13652;DHT22;6899;51.546;6.912;2023-05-10T12:22:50;20.00;99.90
13652;DHT22;6899;51.546;6.912;2023-05-10T12:25:18;19.60;99.90
13652;DHT22;6899;51.546;6.912;2023-05-10T12:27:51;19.40;99.90
13652;DHT22;6899;51.546;6.912;2023-05-10T12:30:24;19.20;99.90
13652;DHT22;6899;51.546;6.912;2023-05-10T12:32:51;19.20;99.90
13652;DHT22;6899;51.546;6.912;2023-05-10T12:35:18;19.60;99.90
13652;DHT22;6899;51.546;6.912;2023-05-10T12:37:47;19.50;99.90
13652;DHT22;6899;51.546;6.912;2023-05-10T12:40:14;19.60;99.90
13652;DHT22;6899;51.546;6.912;2023-05-10T12:42:41;20.10;99.90
13652;DHT22;6899;51.546;6.912;2023-05-10T12:45:11;20.40;99.90
13652;DHT22;6899;51.546;6.912;2023-05-10T12:47:39;20.90;99.90
13652;DHT22;6899;51.546;6.912;2023-05-10T12:50:07;21.30;99.90
13652;DHT22;6899;51.546;6.912;2023-05-10T12:52:33;21.30;99.90
13652;DHT22;6899;51.546;6.912;2023-05-10T12:55:01;21.80;99.90
13652;DHT22;6899;51.546;6.912;2023-05-10T12:57:28;22.20;99.90
13652;DHT22;6899;51.546;6.912;2023-05-10T12:59:56;23.00;99.90
13652;DHT22;6899;51.546;6.912;2023-05-10T13:02:24;23.60;99.90
13652;DHT22;6899;51.546;6.912;2023-05-10T13:04:50;24.00;99.90
13652;DHT22;6899;51.546;6.912;2023-05-10T13:07:17;24.00;98.10
13652;DHT22;6899;51.546;6.912;2023-05-10T13:09:44;23.80;97.10
13652;DHT22;6899;51.546;6.912;2023-05-10T13:12:11;23.20;96.70
13652;DHT22;6899;51.546;6.912;2023-05-10T13:14:37;23.20;98.50
13652;DHT22;6899;51.546;6.912;2023-05-10T13:17:05;23.30;97.00
13652;DHT22;6899;51.546;6.912;2023-05-10T13:19:34;23.40;97.90
13652;DHT22;6899;51.546;6.912;2023-05-10T13:22:00;23.90;96.60
13652;DHT22;6899;51.546;6.912;2023-05-10T13:24:27;24.40;95.90
13652;DHT22;6899;51.546;6.912;2023-05-10T13:26:55;24.70;96.00
13652;DHT22;6899;51.546;6.912;2023-05-10T13:29:21;23.70;94.50
13652;DHT22;6899;51.546;6.912;2023-05-10T13:31:48;23.10;93.10
13652;DHT22;6899;51.546;6.912;2023-05-10T13:34:15;23.40;95.90
13652;DHT22;6899;51.546;6.912;2023-05-10T13:36:43;23.70;93.40
13652;DHT22;6899;51.546;6.912;2023-05-10T13:39:10;23.80;94.60
13652;DHT22;6899;51.546;6.912;2023-05-10T13:41:37;24.40;95.10
13652;DHT22;6899;51.546;6.912;2023-05-10T13:44:04;25.10;92.40
13652;DHT22;6899;51.546;6.912;2023-05-10T13:46:31;25.50;88.50
13652;DHT22;6899;51.546;6.912;2023-05-10T13:48:58;26.00;85.20
13652;DHT22;6899;51.546;6.912;2023-05-10T13:51:25;26.10;82.00
13652;DHT22;6899;51.546;6.912;2023-05-10T13:53:53;26.30;89.50
13652;DHT22;6899;51.546;6.912;2023-05-10T13:56:20;26.50;77.50
13652;DHT22;6899;51.546;6.912;2023-05-10T13:58:46;25.40;82.50
13652;DHT22;6899;51.546;6.912;2023-05-10T14:01:13;24.90;80.40
13652;DHT22;6899;51.546;6.912;2023-05-10T14:03:40;25.10;85.30
13652;DHT22;6899;51.546;6.912;2023-05-10T14:06:08;25.80;79.60
13652;DHT22;6899;51.546;6.912;2023-05-10T14:08:35;26.40;78.80
13652;DHT22;6899;51.546;6.912;2023-05-10T14:11:03;27.10;73.10
13652;DHT22;6899;51.546;6.912;2023-05-10T14:13:30;27.70;78.10
13652;DHT22;6899;51.546;6.912;2023-05-10T14:15:57;27.70;68.00
13652;DHT22;6899;51.546;6.912;2023-05-10T14:18:26;26.90;69.20
13652;DHT22;6899;51.546;6.912;2023-05-10T14:20:52;27.20;68.60
13652;DHT22;6899;51.546;6.912;2023-05-10T14:23:20;26.90;68.60
13652;DHT22;6899;51.546;6.912;2023-05-10T14:25:49;27.30;69.50
13652;DHT22;6899;51.546;6.912;2023-05-10T14:28:17;28.00;64.80
13652;DHT22;6899;51.546;6.912;2023-05-10T14:30:45;27.50;62.20
13652;DHT22;6899;51.546;6.912;2023-05-10T14:33:12;26.20;67.20
13652;DHT22;6899;51.546;6.912;2023-05-10T14:35:39;25.40;70.40
13652;DHT22;6899;51.546;6.912;2023-05-10T14:38:06;24.20;75.40
13652;DHT22;6899;51.546;6.912;2023-05-10T14:40:33;23.70;82.30
13652;DHT22;6899;51.546;6.912;2023-05-10T14:43:00;23.40;85.10
13652;DHT22;6899;51.546;6.912;2023-05-10T14:45:28;23.30;87.10
13652;DHT22;6899;51.546;6.912;2023-05-10T14:47:55;24.70;82.70
13652;DHT22;6899;51.546;6.912;2023-05-10T14:50:21;25.80;75.80
13652;DHT22;6899;51.546;6.912;2023-05-10T14:52:48;26.40;69.20
13652;DHT22;6899;51.546;6.912;2023-05-10T14:55:15;26.40;68.00
13652;DHT22;6899;51.546;6.912;2023-05-10T14:57:42;25.80;68.30
13652;DHT22;6899;51.546;6.912;2023-05-10T15:00:10;25.20;76.60
13652;DHT22;6899;51.546;6.912;2023-05-10T15:02:38;24.30;75.10
13652;DHT22;6899;51.546;6.912;2023-05-10T15:05:06;23.90;80.50
13652;DHT22;6899;51.546;6.912;2023-05-10T15:07:33;23.10;82.00
13652;DHT22;6899;51.546;6.912;2023-05-10T15:09:59;22.80;88.90
13652;DHT22;6899;51.546;6.912;2023-05-10T15:12:26;22.50;90.50
13652;DHT22;6899;51.546;6.912;2023-05-10T15:14:53;21.80;90.00
13652;DHT22;6899;51.546;6.912;2023-05-10T15:17:20;21.50;92.20
13652;DHT22;6899;51.546;6.912;2023-05-10T15:19:48;21.30;95.00
13652;DHT22;6899;51.546;6.912;2023-05-10T15:22:15;20.90;95.50
13652;DHT22;6899;51.546;6.912;2023-05-10T15:24:42;20.50;96.80
13652;DHT22;6899;51.546;6.912;2023-05-10T15:27:09;20.20;99.80
13652;DHT22;6899;51.546;6.912;2023-05-10T15:29:35;20.10;99.90
13652;DHT22;6899;51.546;6.912;2023-05-10T15:32:02;20.00;99.90
13652;DHT22;6899;51.546;6.912;2023-05-10T15:34:29;20.10;99.90
13652;DHT22;6899;51.546;6.912;2023-05-10T15:36:58;20.20;99.90
13652;DHT22;6899;51.546;6.912;2023-05-10T15:39:24;20.30;99.90
13652;DHT22;6899;51.546;6.912;2023-05-10T15:41:51;20.30;99.90
13652;DHT22;6899;51.546;6.912;2023-05-10T15:44:18;20.20;99.90
13652;DHT22;6899;51.546;6.912;2023-05-10T15:46:45;20.10;99.90
13652;DHT22;6899;51.546;6.912;2023-05-10T15:49:12;20.00;99.90
13652;DHT22;6899;51.546;6.912;2023-05-10T15:51:39;19.80;99.90